sensor_id;sensor_type;location;lat;lon;timestamp;pressure;altitude;pressure_sealevel;temperature;humidity
18985;BME280;9626;52.552;13.436;2023-02-08T00:01:41;103617.63;;;-3.15;100.00
18985;BME280;9626;52.552;13.436;2023-02-08T00:04:08;103614.25;;;-3.14;100.00
18985;BME280;9626;52.552;13.436;2023-02-08T00:06:34;103617.34;;;-3.18;100.00
18985;BME280;9626;52.552;13.436;2023-02-08T00:09:00;103615.03;;;-3.25;100.00
18985;BME280;9626;52.552;13.436;2023-02-08T00:11:26;103615.44;;;-3.31;100.00
18985;BME280;9626;52.552;13.436;2023-02-08T00:13:52;103610.13;;;-3.32;100.00
18985;BME280;9626;52.552;13.436;2023-02-08T00:16:18;103619.56;;;-3.33;100.00
18985;BME280;9626;52.552;13.436;2023-02-08T00:18:44;103614.03;;;-3.27;100.00
18985;BME280;9626;52.552;13.436;2023-02-08T00:21:13;103603.50;;;-3.29;100.00
18985;BME280;9626;52.552;13.436;2023-02-08T00:23:40;103605.72;;;-3.33;100.00
18985;BME280;9626;52.552;13.436;2023-02-08T00:26:06;103611.81;;;-3.43;100.00
18985;BME280;9626;52.552;13.436;2023-02-08T00:28:32;103615.84;;;-3.36;100.00
18985;BME280;9626;52.552;13.436;2023-02-08T00:30:58;103610.38;;;-3.19;100.00
18985;BME280;9626;52.552;13.436;2023-02-08T00:33:24;103612.69;;;-3.12;100.00
18985;BME280;9626;52.552;13.436;2023-02-08T00:35:50;103611.94;;;-3.21;100.00
18985;BME280;9626;52.552;13.436;2023-02-08T00:38:16;103621.25;;;-3.33;100.00
18985;BME280;9626;52.552;13.436;2023-02-08T00:40:42;103609.75;;;-3.47;100.00
18985;BME280;9626;52.552;13.436;2023-02-08T00:43:09;103610.00;;;-3.44;100.00
18985;BME280;9626;52.552;13.436;2023-02-08T00:45:35;103612.97;;;-3.50;100.00
18985;BME280;9626;52.552;13.436;2023-02-08T00:48:01;103604.97;;;-3.53;100.00
18985;BME280;9626;52.552;13.436;2023-02-08T00:50:27;103609.84;;;-3.56;100.00
18985;BME280;9626;52.552;13.436;2023-02-08T00:52:53;103603.78;;;-3.57;100.00
18985;BME280;9626;52.552;13.436;2023-02-08T00:55:19;103609.22;;;-3.64;100.00
18985;BME280;9626;52.552;13.436;2023-02-08T00:57:45;103610.38;;;-3.60;100.00
18985;BME280;9626;52.552;13.436;2023-02-08T01:00:11;103614.00;;;-3.58;100.00
18985;BME280;9626;52.552;13.436;2023-02-08T01:02:38;103612.72;;;-3.53;100.00
18985;BME280;9626;52.552;13.436;2023-02-08T01:05:04;103611.78;;;-3.33;100.00
18985;BME280;9626;52.552;13.436;2023-02-08T01:07:30;103609.72;;;-3.27;100.00
18985;BME280;9626;52.552;13.436;2023-02-08T01:09:56;103608.16;;;-3.14;100.00
18985;BME280;9626;52.552;13.436;2023-02-08T01:12:23;103610.75;;;-3.25;100.00
18985;BME280;9626;52.552;13.436;2023-02-08T01:14:49;103612.72;;;-3.32;100.00
18985;BME280;9626;52.552;13.436;2023-02-08T01:17:15;103616.88;;;-3.45;100.00
18985;BME280;9626;52.552;13.436;2023-02-08T01:19:41;103616.59;;;-3.48;100.00
18985;BME280;9626;52.552;13.436;2023-02-08T01:22:07;103615.31;;;-3.63;100.00
18985;BME280;9626;52.552;13.436;2023-02-08T01:24:36;103625.16;;;-3.69;100.00
18985;BME280;9626;52.552;13.436;2023-02-08T01:27:02;103620.84;;;-3.79;100.00
18985;BME280;9626;52.552;13.436;2023-02-08T01:29:28;103622.03;;;-3.76;100.00
18985;BME280;9626;52.552;13.436;2023-02-08T01:31:55;103621.50;;;-3.71;100.00
18985;BME280;9626;52.552;13.436;2023-02-08T01:34:20;103611.41;;;-3.68;100.00
18985;BME280;9626;52.552;13.436;2023-02-08T01:36:47;103614.94;;;-3.68;100.00
18985;BME280;9626;52.552;13.436;2023-02-08T01:39:13;103610.25;;;-3.72;100.00
18985;BME280;9626;52.552;13.436;2023-02-08T01:41:41;103610.13;;;-3.63;100.00
18985;BME280;9626;52.552;13.436;2023-02-08T01:46:39;103608.94;;;-3.67;100.00
18985;BME280;9626;52.552;13.436;2023-02-08T01:49:20;103606.50;;;-3.65;100.00
18985;BME280;9626;52.552;13.436;2023-02-08T01:54:29;103603.91;;;-3.65;100.00
18985;BME280;9626;52.552;13.436;2023-02-08T01:56:56;103603.41;;;-3.61;100.00
18985;BME280;9626;52.552;13.436;2023-02-08T01:59:26;103600.81;;;-3.61;100.00
18985;BME280;9626;52.552;13.436;2023-02-08T02:01:56;103608.81;;;-3.68;100.00
18985;BME280;9626;52.552;13.436;2023-02-08T02:04:24;103603.41;;;-3.61;100.00
18985;BME280;9626;52.552;13.436;2023-02-08T02:06:53;103606.50;;;-3.55;100.00
18985;BME280;9626;52.552;13.436;2023-02-08T02:09:28;103600.25;;;-3.78;100.00
18985;BME280;9626;52.552;13.436;2023-02-08T02:11:57;103600.53;;;-3.75;100.00
18985;BME280;9626;52.552;13.436;2023-02-08T02:14:24;103595.59;;;-3.71;100.00
18985;BME280;9626;52.552;13.436;2023-02-08T02:16:50;103598.72;;;-3.76;100.00
18985;BME280;9626;52.552;13.436;2023-02-08T02:46:57;103614.50;;;-3.72;100.00
18985;BME280;9626;52.552;13.436;2023-02-08T02:51:39;103619.03;;;-3.91;100.00
18985;BME280;9626;52.552;13.436;2023-02-08T02:54:18;103614.75;;;-4.00;100.00
18985;BME280;9626;52.552;13.436;2023-02-08T02:56:48;103609.94;;;-4.06;100.00
18985;BME280;9626;52.552;13.436;2023-02-08T02:59:16;103622.38;;;-4.02;100.00
18985;BME280;9626;52.552;13.436;2023-02-08T03:01:45;103620.41;;;-4.04;100.00
18985;BME280;9626;52.552;13.436;2023-02-08T03:04:12;103615.75;;;-4.09;100.00
18985;BME280;9626;52.552;13.436;2023-02-08T03:06:55;103609.00;;;-4.07;100.00
18985;BME280;9626;52.552;13.436;2023-02-08T03:09:29;103621.22;;;-3.95;100.00
18985;BME280;9626;52.552;13.436;2023-02-08T03:17:41;103615.00;;;-3.97;100.00
18985;BME280;9626;52.552;13.436;2023-02-08T03:20:25;103616.56;;;-3.99;100.00
18985;BME280;9626;52.552;13.436;2023-02-08T03:25:42;103619.88;;;-4.11;100.00
18985;BME280;9626;52.552;13.436;2023-02-08T03:28:39;103624.53;;;-4.17;100.00
18985;BME280;9626;52.552;13.436;2023-02-08T03:31:13;103618.53;;;-4.26;100.00
18985;BME280;9626;52.552;13.436;2023-02-08T03:34:08;103623.97;;;-4.23;100.00
18985;BME280;9626;52.552;13.436;2023-02-08T03:39:15;103622.06;;;-4.15;100.00
18985;BME280;9626;52.552;13.436;2023-02-08T03:41:47;103616.25;;;-4.13;100.00
18985;BME280;9626;52.552;13.436;2023-02-08T03:44:38;103616.78;;;-4.07;100.00
18985;BME280;9626;52.552;13.436;2023-02-08T03:47:12;103618.59;;;-4.05;100.00
18985;BME280;9626;52.552;13.436;2023-02-08T03:49:41;103614.75;;;-4.00;100.00
18985;BME280;9626;52.552;13.436;2023-02-08T03:52:09;103612.66;;;-4.04;100.00
18985;BME280;9626;52.552;13.436;2023-02-08T03:54:59;103616.53;;;-4.10;100.00
18985;BME280;9626;52.552;13.436;2023-02-08T03:57:33;103624.53;;;-4.07;100.00
18985;BME280;9626;52.552;13.436;2023-02-08T04:00:09;103626.38;;;-4.05;100.00
18985;BME280;9626;52.552;13.436;2023-02-08T04:02:39;103624.78;;;-4.14;100.00
18985;BME280;9626;52.552;13.436;2023-02-08T04:05:08;103618.72;;;-4.04;100.00
18985;BME280;9626;52.552;13.436;2023-02-08T04:07:34;103620.16;;;-4.08;100.00
18985;BME280;9626;52.552;13.436;2023-02-08T04:10:01;103621.19;;;-4.16;100.00
18985;BME280;9626;52.552;13.436;2023-02-08T04:12:27;103621.44;;;-4.13;100.00
18985;BME280;9626;52.552;13.436;2023-02-08T04:14:53;103617.41;;;-4.09;100.00
18985;BME280;9626;52.552;13.436;2023-02-08T04:17:19;103609.53;;;-4.11;100.00
18985;BME280;9626;52.552;13.436;2023-02-08T04:19:45;103618.09;;;-4.12;100.00
18985;BME280;9626;52.552;13.436;2023-02-08T04:22:11;103608.25;;;-4.05;100.00
18985;BME280;9626;52.552;13.436;2023-02-08T04:24:37;103609.56;;;-4.00;100.00
18985;BME280;9626;52.552;13.436;2023-02-08T04:27:04;103617.84;;;-3.94;100.00
18985;BME280;9626;52.552;13.436;2023-02-08T04:29:30;103613.16;;;-3.98;100.00
18985;BME280;9626;52.552;13.436;2023-02-08T04:31:56;103615.00;;;-4.08;100.00
18985;BME280;9626;52.552;13.436;2023-02-08T04:34:22;103624.03;;;-4.02;100.00
18985;BME280;9626;52.552;13.436;2023-02-08T04:36:48;103624.53;;;-4.07;100.00
18985;BME280;9626;52.552;13.436;2023-02-08T04:39:14;103621.19;;;-4.16;100.00
18985;BME280;9626;52.552;13.436;2023-02-08T04:41:40;103616.97;;;-4.24;100.00
18985;BME280;9626;52.552;13.436;2023-02-08T04:44:06;103611.91;;;-4.33;100.00
18985;BME280;9626;52.552;13.436;2023-02-08T04:46:32;103609.56;;;-4.40;100.00
18985;BME280;9626;52.552;13.436;2023-02-08T04:48:58;103609.03;;;-4.46;100.00
18985;BME280;9626;52.552;13.436;2023-02-08T04:51:24;103611.47;;;-4.48;100.00
18985;BME280;9626;52.552;13.436;2023-02-08T04:53:50;103617.72;;;-4.35;100.00
18985;BME280;9626;52.552;13.436;2023-02-08T04:56:17;103612.81;;;-4.32;100.00
18985;BME280;9626;52.552;13.436;2023-02-08T04:58:43;103613.09;;;-4.29;100.00
18985;BME280;9626;52.552;13.436;2023-02-08T05:01:09;103610.22;;;-4.32;100.00
18985;BME280;9626;52.552;13.436;2023-02-08T05:03:38;103612.03;;;-4.42;100.00
18985;BME280;9626;52.552;13.436;2023-02-08T05:06:04;103609.16;;;-4.45;100.00
18985;BME280;9626;52.552;13.436;2023-02-08T05:08:30;103617.28;;;-4.50;100.00
18985;BME280;9626;52.552;13.436;2023-02-08T05:10:56;103618.72;;;-4.44;100.00
18985;BME280;9626;52.552;13.436;2023-02-08T05:13:23;103615.88;;;-4.47;100.00
18985;BME280;9626;52.552;13.436;2023-02-08T05:15:49;103618.66;;;-4.35;100.00
18985;BME280;9626;52.552;13.436;2023-02-08T05:18:15;103617.72;;;-4.35;100.00
18985;BME280;9626;52.552;13.436;2023-02-08T05:20:41;103620.38;;;-4.25;100.00
18985;BME280;9626;52.552;13.436;2023-02-08T05:23:07;103616.56;;;-4.39;100.00
18985;BME280;9626;52.552;13.436;2023-02-08T05:25:33;103618.09;;;-4.41;100.00
18985;BME280;9626;52.552;13.436;2023-02-08T05:27:59;103621.75;;;-4.39;100.00
18985;BME280;9626;52.552;13.436;2023-02-08T05:30:25;103615.13;;;-4.46;100.00
18985;BME280;9626;52.552;13.436;2023-02-08T05:32:51;103623.72;;;-4.55;100.00
18985;BME280;9626;52.552;13.436;2023-02-08T05:35:17;103624.19;;;-4.70;100.00
18985;BME280;9626;52.552;13.436;2023-02-08T05:37:43;103625.44;;;-4.75;100.00
18985;BME280;9626;52.552;13.436;2023-02-08T05:40:10;103626.41;;;-4.64;100.00
18985;BME280;9626;52.552;13.436;2023-02-08T05:42:38;103636.34;;;-4.69;100.00
18985;BME280;9626;52.552;13.436;2023-02-08T05:45:04;103633.06;;;-4.77;100.00
18985;BME280;9626;52.552;13.436;2023-02-08T05:47:30;103630.22;;;-4.80;100.00
18985;BME280;9626;52.552;13.436;2023-02-08T05:49:56;103625.81;;;-4.81;100.00
18985;BME280;9626;52.552;13.436;2023-02-08T05:52:22;103628.53;;;-4.79;100.00
18985;BME280;9626;52.552;13.436;2023-02-08T05:54:49;103629.41;;;-4.79;100.00
18985;BME280;9626;52.552;13.436;2023-02-08T05:57:15;103634.59;;;-4.79;100.00
18985;BME280;9626;52.552;13.436;2023-02-08T05:59:41;103633.34;;;-4.73;100.00
18985;BME280;9626;52.552;13.436;2023-02-08T06:02:07;103632.44;;;-4.74;100.00
18985;BME280;9626;52.552;13.436;2023-02-08T06:04:33;103641.53;;;-4.69;100.00
18985;BME280;9626;52.552;13.436;2023-02-08T06:06:59;103632.34;;;-4.65;100.00
18985;BME280;9626;52.552;13.436;2023-02-08T06:09:25;103640.88;;;-4.66;100.00
18985;BME280;9626;52.552;13.436;2023-02-08T06:11:51;103650.25;;;-4.58;100.00
18985;BME280;9626;52.552;13.436;2023-02-08T06:14:17;103652.84;;;-4.58;100.00
18985;BME280;9626;52.552;13.436;2023-02-08T06:16:46;103653.50;;;-4.50;100.00
18985;BME280;9626;52.552;13.436;2023-02-08T06:19:12;103653.22;;;-4.53;100.00
18985;BME280;9626;52.552;13.436;2023-02-08T06:21:39;103652.97;;;-4.56;100.00
18985;BME280;9626;52.552;13.436;2023-02-08T06:24:05;103656.94;;;-4.60;100.00
18985;BME280;9626;52.552;13.436;2023-02-08T06:26:32;103656.06;;;-4.61;100.00
18985;BME280;9626;52.552;13.436;2023-02-08T06:28:59;103655.94;;;-4.52;100.00
18985;BME280;9626;52.552;13.436;2023-02-08T06:31:25;103658.78;;;-4.59;100.00
18985;BME280;9626;52.552;13.436;2023-02-08T06:33:51;103660.59;;;-4.58;100.00
18985;BME280;9626;52.552;13.436;2023-02-08T06:36:17;103662.38;;;-4.57;100.00
18985;BME280;9626;52.552;13.436;2023-02-08T06:38:43;103649.75;;;-4.54;100.00
18985;BME280;9626;52.552;13.436;2023-02-08T06:41:09;103661.34;;;-4.59;100.00
18985;BME280;9626;52.552;13.436;2023-02-08T06:43:35;103663.00;;;-4.60;100.00
18985;BME280;9626;52.552;13.436;2023-02-08T06:46:01;103660.59;;;-4.58;100.00
18985;BME280;9626;52.552;13.436;2023-02-08T06:48:30;103655.13;;;-4.61;100.00
18985;BME280;9626;52.552;13.436;2023-02-08T06:50:56;103664.31;;;-4.65;100.00
18985;BME280;9626;52.552;13.436;2023-02-08T06:53:22;103661.34;;;-4.59;100.00
18985;BME280;9626;52.552;13.436;2023-02-08T06:55:49;103662.88;;;-4.61;100.00
18985;BME280;9626;52.552;13.436;2023-02-08T06:58:15;103667.44;;;-4.59;100.00
18985;BME280;9626;52.552;13.436;2023-02-08T07:00:41;103669.66;;;-4.53;100.00
18985;BME280;9626;52.552;13.436;2023-02-08T07:03:11;103665.53;;;-4.51;100.00
18985;BME280;9626;52.552;13.436;2023-02-08T07:05:38;103656.84;;;-4.51;100.00
18985;BME280;9626;52.552;13.436;2023-02-08T07:08:04;103658.81;;;-4.49;100.00
18985;BME280;9626;52.552;13.436;2023-02-08T07:10:31;103664.41;;;-4.44;100.00
18985;BME280;9626;52.552;13.436;2023-02-08T07:12:57;103664.31;;;-4.35;100.00
18985;BME280;9626;52.552;13.436;2023-02-08T07:15:23;103659.19;;;-4.25;100.00
18985;BME280;9626;52.552;13.436;2023-02-08T07:17:49;103667.34;;;-4.20;100.00
18985;BME280;9626;52.552;13.436;2023-02-08T07:20:15;103657.13;;;-4.19;100.00
18985;BME280;9626;52.552;13.436;2023-02-08T07:22:41;103661.53;;;-4.18;100.00
18985;BME280;9626;52.552;13.436;2023-02-08T07:25:08;103659.84;;;-4.17;100.00
18985;BME280;9626;52.552;13.436;2023-02-08T07:27:34;103649.66;;;-4.05;100.00
18985;BME280;9626;52.552;13.436;2023-02-08T07:30:00;103660.78;;;-4.07;100.00
18985;BME280;9626;52.552;13.436;2023-02-08T07:32:26;103658.75;;;-4.00;100.00
18985;BME280;9626;52.552;13.436;2023-02-08T07:34:52;103660.28;;;-4.02;100.00
18985;BME280;9626;52.552;13.436;2023-02-08T07:37:19;103662.66;;;-3.95;100.00
18985;BME280;9626;52.552;13.436;2023-02-08T07:39:45;103667.34;;;-3.81;100.00
18985;BME280;9626;52.552;13.436;2023-02-08T07:42:11;103676.97;;;-3.69;100.00
18985;BME280;9626;52.552;13.436;2023-02-08T07:44:38;103675.78;;;-3.73;100.00
18985;BME280;9626;52.552;13.436;2023-02-08T07:47:05;103685.53;;;-3.50;100.00
18985;BME280;9626;52.552;13.436;2023-02-08T07:49:32;103684.25;;;-3.24;100.00
18985;BME280;9626;52.552;13.436;2023-02-08T07:52:01;103681.25;;;-3.08;100.00
18985;BME280;9626;52.552;13.436;2023-02-08T07:54:28;103682.41;;;-3.04;100.00
18985;BME280;9626;52.552;13.436;2023-02-08T07:56:54;103680.84;;;-2.82;100.00
18985;BME280;9626;52.552;13.436;2023-02-08T07:59:21;103684.34;;;-2.28;100.00
18985;BME280;9626;52.552;13.436;2023-02-08T08:01:47;103689.31;;;-2.42;100.00
18985;BME280;9626;52.552;13.436;2023-02-08T08:04:13;103695.78;;;-2.36;100.00
18985;BME280;9626;52.552;13.436;2023-02-08T08:06:39;103696.09;;;-2.54;100.00
18985;BME280;9626;52.552;13.436;2023-02-08T08:09:05;103695.97;;;-2.45;100.00
18985;BME280;9626;52.552;13.436;2023-02-08T08:11:31;103690.63;;;-2.14;100.00
18985;BME280;9626;52.552;13.436;2023-02-08T08:13:57;103698.91;;;-2.30;100.00
18985;BME280;9626;52.552;13.436;2023-02-08T08:16:23;103700.19;;;-2.35;100.00
18985;BME280;9626;52.552;13.436;2023-02-08T08:18:49;103702.84;;;-2.13;100.00
18985;BME280;9626;52.552;13.436;2023-02-08T08:21:15;103703.91;;;-1.89;100.00
18985;BME280;9626;52.552;13.436;2023-02-08T08:23:41;103709.91;;;-1.46;100.00
18985;BME280;9626;52.552;13.436;2023-02-08T08:26:10;103710.19;;;-1.53;100.00
18985;BME280;9626;52.552;13.436;2023-02-08T08:28:39;103705.25;;;-1.50;100.00
18985;BME280;9626;52.552;13.436;2023-02-08T08:31:17;103701.84;;;-1.15;100.00
18985;BME280;9626;52.552;13.436;2023-02-08T08:33:43;103710.38;;;-0.82;100.00
18985;BME280;9626;52.552;13.436;2023-02-08T08:36:10;103706.09;;;-0.70;100.00
18985;BME280;9626;52.552;13.436;2023-02-08T08:38:36;103701.13;;;-0.78;100.00
18985;BME280;9626;52.552;13.436;2023-02-08T08:41:12;103692.97;;;-0.95;100.00
18985;BME280;9626;52.552;13.436;2023-02-08T08:43:39;103699.66;;;-0.75;100.00
18985;BME280;9626;52.552;13.436;2023-02-08T08:46:08;103695.84;;;-1.14;100.00
18985;BME280;9626;52.552;13.436;2023-02-08T08:48:34;103686.88;;;-0.72;100.00
18985;BME280;9626;52.552;13.436;2023-02-08T08:51:01;103687.44;;;-0.28;98.93
18985;BME280;9626;52.552;13.436;2023-02-08T08:53:27;103677.75;;;-0.06;94.17
18985;BME280;9626;52.552;13.436;2023-02-08T08:55:53;103685.53;;;-0.19;94.23
18985;BME280;9626;52.552;13.436;2023-02-08T08:58:19;103678.03;;;-0.26;96.59
18985;BME280;9626;52.552;13.436;2023-02-08T09:00:45;103687.31;;;-0.18;97.05
18985;BME280;9626;52.552;13.436;2023-02-08T09:03:11;103683.50;;;0.14;92.80
18985;BME280;9626;52.552;13.436;2023-02-08T09:05:38;103682.19;;;0.32;90.42
18985;BME280;9626;52.552;13.436;2023-02-08T09:08:04;103672.63;;;0.45;90.88
18985;BME280;9626;52.552;13.436;2023-02-08T09:10:30;103669.00;;;0.43;89.52
18985;BME280;9626;52.552;13.436;2023-02-08T09:12:57;103671.44;;;0.53;87.58
18985;BME280;9626;52.552;13.436;2023-02-08T09:15:23;103661.22;;;0.81;86.32
18985;BME280;9626;52.552;13.436;2023-02-08T09:17:49;103660.38;;;1.21;81.98
18985;BME280;9626;52.552;13.436;2023-02-08T09:20:15;103669.38;;;1.93;77.59
18985;BME280;9626;52.552;13.436;2023-02-08T09:22:41;103667.22;;;2.14;73.06
18985;BME280;9626;52.552;13.436;2023-02-08T09:25:07;103667.63;;;1.52;74.57
18985;BME280;9626;52.552;13.436;2023-02-08T09:27:34;103676.56;;;1.56;75.52
18985;BME280;9626;52.552;13.436;2023-02-08T09:30:03;103680.16;;;1.31;76.00
18985;BME280;9626;52.552;13.436;2023-02-08T09:32:32;103681.47;;;1.51;75.20
18985;BME280;9626;52.552;13.436;2023-02-08T09:35:00;103681.03;;;2.40;72.74
18985;BME280;9626;52.552;13.436;2023-02-08T09:37:28;103684.25;;;3.09;66.61
18985;BME280;9626;52.552;13.436;2023-02-08T09:39:54;103687.06;;;3.27;65.22
18985;BME280;9626;52.552;13.436;2023-02-08T09:47:48;103680.78;;;4.34;59.12
18985;BME280;9626;52.552;13.436;2023-02-08T09:55:52;103678.72;;;3.64;58.69
18985;BME280;9626;52.552;13.436;2023-02-08T09:58:25;103676.34;;;4.50;56.81
18985;BME280;9626;52.552;13.436;2023-02-08T10:00:53;103667.84;;;4.70;56.34
18985;BME280;9626;52.552;13.436;2023-02-08T10:03:24;103653.88;;;3.89;57.88
18985;BME280;9626;52.552;13.436;2023-02-08T10:05:52;103656.41;;;3.87;58.00
18985;BME280;9626;52.552;13.436;2023-02-08T10:08:19;103647.91;;;3.60;58.52
18985;BME280;9626;52.552;13.436;2023-02-08T10:19:09;103628.19;;;5.54;53.86
18985;BME280;9626;52.552;13.436;2023-02-08T10:22:26;103618.47;;;5.16;53.03
18985;BME280;9626;52.552;13.436;2023-02-08T10:27:27;103621.69;;;5.28;51.93
18985;BME280;9626;52.552;13.436;2023-02-08T10:35:27;103615.84;;;4.47;53.36
18985;BME280;9626;52.552;13.436;2023-02-08T10:37:54;103611.09;;;4.39;54.70
18985;BME280;9626;52.552;13.436;2023-02-08T10:40:35;103606.00;;;5.12;52.78
18985;BME280;9626;52.552;13.436;2023-02-08T10:43:13;103602.41;;;4.07;54.83
18985;BME280;9626;52.552;13.436;2023-02-08T10:48:16;103614.78;;;3.46;55.10
18985;BME280;9626;52.552;13.436;2023-02-08T10:50:46;103603.91;;;3.86;56.47
18985;BME280;9626;52.552;13.436;2023-02-08T10:53:14;103595.63;;;5.15;53.58
18985;BME280;9626;52.552;13.436;2023-02-08T10:55:46;103596.53;;;5.33;51.33
18985;BME280;9626;52.552;13.436;2023-02-08T10:58:16;103598.47;;;4.49;52.64
18985;BME280;9626;52.552;13.436;2023-02-08T11:00:44;103589.41;;;5.13;51.82
18985;BME280;9626;52.552;13.436;2023-02-08T11:05:42;103586.19;;;4.15;54.15
18985;BME280;9626;52.552;13.436;2023-02-08T11:08:18;103587.75;;;3.00;57.26
18985;BME280;9626;52.552;13.436;2023-02-08T11:11:05;103586.41;;;3.07;58.30
18985;BME280;9626;52.552;13.436;2023-02-08T11:13:33;103581.47;;;3.28;57.90
18985;BME280;9626;52.552;13.436;2023-02-08T11:16:01;103576.00;;;3.09;58.92
18985;BME280;9626;52.552;13.436;2023-02-08T11:21:08;103579.09;;;3.16;57.27
18985;BME280;9626;52.552;13.436;2023-02-08T11:23:51;103569.53;;;3.81;56.88
18985;BME280;9626;52.552;13.436;2023-02-08T11:29:12;103580.09;;;3.83;56.08
18985;BME280;9626;52.552;13.436;2023-02-08T11:31:55;103578.69;;;3.25;58.19
18985;BME280;9626;52.552;13.436;2023-02-08T11:34:31;103572.41;;;3.07;57.88
18985;BME280;9626;52.552;13.436;2023-02-08T11:37:01;103570.81;;;2.49;59.97
18985;BME280;9626;52.552;13.436;2023-02-08T11:39:41;103565.97;;;1.83;64.38
18985;BME280;9626;52.552;13.436;2023-02-08T11:42:18;103559.78;;;2.40;63.95
18985;BME280;9626;52.552;13.436;2023-02-08T11:44:45;103566.34;;;3.08;61.17
18985;BME280;9626;52.552;13.436;2023-02-08T11:47:16;103564.88;;;4.09;58.00
18985;BME280;9626;52.552;13.436;2023-02-08T11:49:51;103560.63;;;4.80;53.95
18985;BME280;9626;52.552;13.436;2023-02-08T11:54:46;103564.91;;;5.50;51.21
18985;BME280;9626;52.552;13.436;2023-02-08T11:57:21;103558.03;;;5.34;51.41
18985;BME280;9626;52.552;13.436;2023-02-08T11:59:49;103562.84;;;5.62;50.89
18985;BME280;9626;52.552;13.436;2023-02-08T12:02:37;103559.75;;;4.97;51.83
18985;BME280;9626;52.552;13.436;2023-02-08T12:05:11;103559.66;;;3.13;55.92
18985;BME280;9626;52.552;13.436;2023-02-08T12:21:49;103573.16;;;4.00;56.30
18985;BME280;9626;52.552;13.436;2023-02-08T12:27:42;103563.56;;;5.22;52.24
18985;BME280;9626;52.552;13.436;2023-02-08T12:30:32;103570.16;;;5.50;51.50
18985;BME280;9626;52.552;13.436;2023-02-08T12:35:50;103571.19;;;5.16;51.73
18985;BME280;9626;52.552;13.436;2023-02-08T12:41:29;103566.88;;;6.52;48.20
18985;BME280;9626;52.552;13.436;2023-02-08T12:44:23;103560.16;;;6.39;48.22
18985;BME280;9626;52.552;13.436;2023-02-08T12:47:05;103558.47;;;6.60;47.47
18985;BME280;9626;52.552;13.436;2023-02-08T12:52:44;103553.88;;;6.35;47.90
18985;BME280;9626;52.552;13.436;2023-02-08T12:55:38;103549.63;;;6.18;48.76
18985;BME280;9626;52.552;13.436;2023-02-08T12:58:25;103556.09;;;4.94;50.57
18985;BME280;9626;52.552;13.436;2023-02-08T13:01:25;103546.22;;;4.71;52.67
18985;BME280;9626;52.552;13.436;2023-02-08T13:04:13;103551.28;;;4.32;52.51
18985;BME280;9626;52.552;13.436;2023-02-08T13:07:12;103547.53;;;4.11;54.20
18985;BME280;9626;52.552;13.436;2023-02-08T13:12:48;103541.16;;;3.10;57.82
18985;BME280;9626;52.552;13.436;2023-02-08T13:15:44;103530.69;;;3.41;58.80
18985;BME280;9626;52.552;13.436;2023-02-08T13:18:33;103526.38;;;4.24;56.06
18985;BME280;9626;52.552;13.436;2023-02-08T13:21:23;103526.16;;;4.72;54.50
18985;BME280;9626;52.552;13.436;2023-02-08T13:24:35;103526.56;;;5.35;51.99
18985;BME280;9626;52.552;13.436;2023-02-08T13:27:22;103521.34;;;4.99;51.69
18985;BME280;9626;52.552;13.436;2023-02-08T13:30:16;103527.75;;;5.62;51.97
18985;BME280;9626;52.552;13.436;2023-02-08T13:33:13;103520.50;;;5.95;49.63
18985;BME280;9626;52.552;13.436;2023-02-08T13:36:00;103513.00;;;6.03;49.44
18985;BME280;9626;52.552;13.436;2023-02-08T13:38:47;103503.16;;;5.22;50.61
18985;BME280;9626;52.552;13.436;2023-02-08T13:41:32;103503.31;;;5.25;51.18
18985;BME280;9626;52.552;13.436;2023-02-08T13:44:19;103501.88;;;5.14;51.75
18985;BME280;9626;52.552;13.436;2023-02-08T13:47:28;103491.81;;;4.85;51.83
18985;BME280;9626;52.552;13.436;2023-02-08T13:53:11;103498.94;;;4.01;55.17
18985;BME280;9626;52.552;13.436;2023-02-08T13:55:59;103491.06;;;3.68;55.47
18985;BME280;9626;52.552;13.436;2023-02-08T14:01:35;103501.91;;;4.96;52.21
18985;BME280;9626;52.552;13.436;2023-02-08T14:04:34;103497.34;;;4.55;52.20
18985;BME280;9626;52.552;13.436;2023-02-08T14:07:42;103493.59;;;3.99;53.67
18985;BME280;9626;52.552;13.436;2023-02-08T14:10:23;103495.44;;;4.18;53.66
18985;BME280;9626;52.552;13.436;2023-02-08T14:12:59;103479.03;;;4.57;52.93
18985;BME280;9626;52.552;13.436;2023-02-08T14:15:30;103488.00;;;4.44;53.68
18985;BME280;9626;52.552;13.436;2023-02-08T14:17:58;103489.34;;;4.54;53.45
18985;BME280;9626;52.552;13.436;2023-02-08T14:20:29;103485.16;;;4.39;53.23
18985;BME280;9626;52.552;13.436;2023-02-08T14:23:00;103478.94;;;4.03;54.38
18985;BME280;9626;52.552;13.436;2023-02-08T14:25:50;103486.09;;;3.72;55.51
18985;BME280;9626;52.552;13.436;2023-02-08T14:30:50;103477.38;;;4.59;54.30
18985;BME280;9626;52.552;13.436;2023-02-08T14:33:22;103471.00;;;4.90;52.83
18985;BME280;9626;52.552;13.436;2023-02-08T14:35:58;103465.19;;;5.15;52.24
18985;BME280;9626;52.552;13.436;2023-02-08T14:38:54;103460.94;;;5.76;50.25
18985;BME280;9626;52.552;13.436;2023-02-08T14:41:45;103458.91;;;5.90;49.88
18985;BME280;9626;52.552;13.436;2023-02-08T14:50:17;103458.97;;;5.51;50.11
18985;BME280;9626;52.552;13.436;2023-02-08T14:52:51;103461.44;;;5.67;49.13
18985;BME280;9626;52.552;13.436;2023-02-08T14:55:23;103460.19;;;5.59;49.44
18985;BME280;9626;52.552;13.436;2023-02-08T14:57:57;103454.56;;;4.58;51.95
18985;BME280;9626;52.552;13.436;2023-02-08T15:00:35;103455.19;;;4.88;51.64
18985;BME280;9626;52.552;13.436;2023-02-08T15:03:04;103457.88;;;4.90;50.82
18985;BME280;9626;52.552;13.436;2023-02-08T15:05:40;103451.88;;;4.38;51.67
18985;BME280;9626;52.552;13.436;2023-02-08T15:08:08;103444.78;;;4.19;52.32
18985;BME280;9626;52.552;13.436;2023-02-08T15:10:40;103435.63;;;3.77;53.48
18985;BME280;9626;52.552;13.436;2023-02-08T15:13:19;103448.97;;;3.15;55.42
18985;BME280;9626;52.552;13.436;2023-02-08T15:15:51;103444.66;;;2.69;56.91
18985;BME280;9626;52.552;13.436;2023-02-08T15:18:21;103434.25;;;2.40;58.42